Fes-Sais, Morocco

6:05 PM WEST on July 13, 2014 (GMT +0100)
Saiss (GMFF) Elev 1900 ft | 33.93 °N, 4.97 °W | Change Station

Current weather conditions updated 35 minutes ago

Partly Cloudy
Partly Cloudy
91 °F
Feels Like 91 °F
N
9
Wind Variable Wind from WNW

Tomorrow is forecast to be Warmer than today.

Today
High -- | Low -- °F
--% Chance of Precip.
Yesterday
High -- | Low -- °F
Precip. -- in
6:18 AM 8:32 PM
Full, 98% visible
Pressure 30.04 in
Visibility 6.2 miles
Clouds Few 3000 ft
Few 3300 ft
Dew Point 48 °F
Humidity 23%
Rainfall 0.00 in
Snow Depth Not available.
UV 4 out of 12
Pollen Not available.
Air Quality Not available.
Flu Activity Not available.
METAR GMFF 131630Z 30008KT 260V340 9999 FEW030 FEW033CB 33/09 Q1017 NOSIG

More Conditions Fewer Conditions

Pressure 30.04 in
Visibility 6.2 miles
Clouds Few 3000 ft
Few 3300 ft
Dew Point 48 °F
Humidity 23%
Rainfall 0.00 in
Snow Depth Not available.
UV 4 out of 12
Pollen Not available.
Air Quality Not available.
Flu Activity Not available.
METAR GMFF 131630Z 30008KT 260V340 9999 FEW030 FEW033CB 33/09 Q1017 NOSIG

More Conditions Fewer Conditions

10-Day Weather Forecast

Almanac

Astronomy

Jul. 13, 2014 Rise Set
Actual Time 6:18 AM WEST 8:32 PM WEST
Civil Twilight 5:50 AM WEST 9:01 PM WEST
Nautical Twilight 5:15 AM WEST 9:35 PM WEST
Astronomical Twilight 4:37 AM WEST 10:13 PM WEST
Moon 9:17 PM WEST 7:26 AM WEST
Length of Visible Light 15h 11m
Length of Day
14h 13m
Tomorrow will be 1m 0s shorter.
Full, 98% of the Moon is Illuminated
Today
Full
Jul 18
Last Quarter
Jul 26
New
Aug 3
First Quarter
Aug 10
Full

Today's Extremes

Country Highs Country Lows

Community

WunderPhotos

Upload Photos

1,733,283 photos uploaded!

Nearby

Snow Depth

Not available.

Earthquake Activity

City Distance Mag. Time & Date
No recent earthquake activity has been reported nearby.
Minimum magnitude displayed is 2.5.

Coastal Water Temperatures

Place Temperature
No Stations Reporting

Nearby Weather Stations

There are no personal weather stations in this area.